»·PEaware :: N9273T KCMA-KDLO

N9273T :: KCMA-KDLO

FLIGHT INFORMATION

Flight Status: Arrived
Operator: Privately registered:
United States
More flights under this callsign
Pilot: Jim L. (28297)
Aircraft: CESSNA 210 CENTURION
(C210)
More flights by this aircraft type
Origin: KCMA Camarillo
United States
Destination: KDLO Delano Mun
United States
More flights between these airports :: More routes between these airports
Route: FIM V299 GMN V23 EHF
File this flight plan on PilotEdge
Remarks:
Altitude:
(Current/Filed)
11,000ft
Speed:
(Current/Filed)
140kts
Departed: 14-Jul-20 05:00 PM
Arrived: 14-Jul-20 05:45 PM
Distance/Time
Traveled:
92nm/0:45
Distance/Time
To Go:
Arrived

Flight Plot

Page will automatically refresh every two minutes.


Map Options




Map Legend


Flown Route
Filed Route
Departure Airport
Arrival Airport
Navaid (VOR, NDB)
Fix

Horizontal Profiles

Position Reports

Time Latitude Longitude Heading Altitude Ground
Speed
14-Jul-20 16:45 34.210350 -119.076470 90 81ft 0kts
14-Jul-20 16:46 34.210350 -119.076470 90 81ft 0kts
14-Jul-20 16:47 34.210350 -119.076470 90 81ft 0kts
14-Jul-20 16:48 34.210350 -119.076470 90 81ft 0kts
14-Jul-20 16:49 34.210350 -119.076470 90 81ft 0kts
14-Jul-20 16:50 34.210350 -119.076470 90 81ft 0kts
14-Jul-20 16:51 34.210350 -119.076470 90 81ft 0kts
14-Jul-20 16:52 34.210350 -119.076470 90 81ft 0kts
14-Jul-20 16:53 34.210350 -119.076470 90 81ft 0kts
14-Jul-20 16:54 34.210350 -119.076470 90 81ft 0kts
14-Jul-20 16:55 34.210870 -119.077066 270 81ft 8kts
14-Jul-20 16:56 34.210907 -119.081513 269 81ft 16kts
14-Jul-20 16:57 34.212059 -119.084642 358 81ft 13kts
14-Jul-20 16:58 34.213699 -119.085298 269 81ft 21kts
14-Jul-20 16:59 34.216312 -119.112176 286 990ft 105kts
14-Jul-20 17:00 34.223735 -119.143804 284 2444ft 97kts
14-Jul-20 17:01 34.232401 -119.176453 287 3561ft 106kts
14-Jul-20 17:02 34.252264 -119.181813 61 4702ft 115kts
14-Jul-20 17:03 34.266723 -119.146563 60 5820ft 118kts
14-Jul-20 17:04 34.281632 -119.111268 59 6932ft 119kts
14-Jul-20 17:05 34.296139 -119.075018 68 7910ft 130kts
14-Jul-20 17:06 34.311247 -119.027327 67 8119ft 160kts
14-Jul-20 17:07 34.324578 -118.984769 68 8951ft 142kts
14-Jul-20 17:08 34.338144 -118.941528 68 9935ft 134kts
14-Jul-20 17:09 34.351103 -118.900109 68 10927ft 130kts
14-Jul-20 17:10 34.384638 -118.879749 1 11044ft 166kts
14-Jul-20 17:11 34.430444 -118.878117 1 11040ft 164kts
14-Jul-20 17:12 34.476071 -118.876119 1 11040ft 164kts
14-Jul-20 17:13 34.521734 -118.874087 1 11040ft 164kts
14-Jul-20 17:15 34.567465 -118.872060 1 11040ft 164kts
14-Jul-20 17:16 34.613144 -118.870023 1 11040ft 164kts
14-Jul-20 17:17 34.658772 -118.867990 1 11040ft 164kts
14-Jul-20 17:18 34.704593 -118.865994 1 11040ft 164kts
14-Jul-20 17:19 34.750164 -118.864016 1 11040ft 164kts
14-Jul-20 17:20 34.795788 -118.861985 1 11040ft 164kts
14-Jul-20 17:21 34.840278 -118.873780 343 11040ft 164kts
14-Jul-20 17:22 34.884193 -118.889220 343 11040ft 164kts
14-Jul-20 17:23 34.928099 -118.904403 344 11040ft 164kts
14-Jul-20 17:24 34.972102 -118.919587 344 11040ft 164kts
14-Jul-20 17:25 35.016121 -118.934634 344 11040ft 164kts
14-Jul-20 17:26 35.059988 -118.949770 344 11040ft 164kts
14-Jul-20 17:27 35.103938 -118.964932 344 10862ft 175kts
14-Jul-20 17:28 35.151895 -118.981600 344 10062ft 173kts
14-Jul-20 17:29 35.196919 -118.997295 344 9256ft 166kts
14-Jul-20 17:30 35.240887 -119.012566 343 8457ft 164kts
14-Jul-20 17:30 35.277118 -119.025121 343 7788ft 161kts
14-Jul-20 17:32 35.327045 -119.042451 343 6856ft 159kts
14-Jul-20 17:33 35.369579 -119.057257 343 6055ft 158kts
14-Jul-20 17:34 35.411816 -119.071983 342 5254ft 157kts
14-Jul-20 17:34 35.445130 -119.083674 342 5143ft 149kts
14-Jul-20 17:35 35.486395 -119.098544 337 4860ft 166kts
14-Jul-20 17:37 35.537550 -119.125625 335 3938ft 174kts
14-Jul-20 17:37 35.571722 -119.150822 326 3270ft 174kts
14-Jul-20 17:38 35.613774 -119.173061 336 3139ft 156kts
14-Jul-20 17:39 35.650934 -119.190719 336 2294ft 138kts
14-Jul-20 17:40 35.681568 -119.204856 331 1518ft 94kts
14-Jul-20 17:41 35.704243 -119.216174 332 1111ft 87kts
14-Jul-20 17:42 35.725728 -119.226816 329 613ft 75kts
14-Jul-20 17:43 35.743722 -119.235760 336 316ft 62kts
14-Jul-20 17:44 35.751906 -119.239981 219 316ft 10kts
14-Jul-20 17:45 35.747285 -119.239702 168 316ft 11kts
14-Jul-20 17:46 35.747241 -119.239690 167 316ft 0kts
14-Jul-20 17:47 35.747241 -119.239690 167 316ft 0kts
14-Jul-20 17:48 35.747241 -119.239690 167 316ft 0kts
14-Jul-20 17:49 35.747241 -119.239690 167 316ft 0kts
14-Jul-20 17:50 35.747241 -119.239690 167 316ft 0kts
14-Jul-20 17:51 35.747241 -119.239690 167 316ft 0kts

Navigation Log

Ident Type
Flight plan parsing failed, navigation log unavailable